Time;durP1;ratioP1;P1;durP2;ratioP2;P2;SDS_P1;SDS_P2;PMS_P1;PMS_P2;Temp;Humidity;BMP_temperature;BMP_pressure;BME280_temperature;BME280_humidity;BME280_pressure;Samples;Min_cycle;Max_cycle;Signal;HPM_P1;HPM_P2
2022/04/26 03:38:04;;;;;;;14.50;9.47;;;10.80;99.90;;;;;;5067811;28;20406;-79
2022/04/26 03:40:30;;;;;;;14.80;10.40;;;10.80;99.90;;;;;;5075027;28;20916;-78
2022/04/26 03:42:56;;;;;;;19.60;12.20;;;10.80;99.90;;;;;;5074932;28;20233;-79
2022/04/26 03:45:22;;;;;;;19.60;10.40;;;10.80;99.90;;;;;;5075299;28;20418;-78
2022/04/26 03:47:49;;;;;;;16.83;10.27;;;10.70;99.90;;;;;;5074806;28;20179;-79
2022/04/26 03:50:14;;;;;;;15.77;9.97;;;10.60;99.90;;;;;;5073603;28;20202;-79
2022/04/26 03:52:40;;;;;;;18.80;11.27;;;10.50;99.90;;;;;;5074819;28;20559;-78
2022/04/26 03:55:07;;;;;;;17.70;11.13;;;10.50;99.90;;;;;;5075139;28;21062;-79
2022/04/26 03:57:33;;;;;;;21.30;11.47;;;10.50;99.90;;;;;;5074230;28;20196;-79
2022/04/26 03:59:58;;;;;;;21.63;12.33;;;10.40;99.90;;;;;;5075058;28;21050;-78
2022/04/26 04:02:24;;;;;;;24.37;14.90;;;10.50;99.90;;;;;;5074373;28;20190;-79
2022/04/26 04:04:50;;;;;;;20.07;13.30;;;10.50;99.90;;;;;;5074470;28;20268;-79
2022/04/26 04:07:16;;;;;;;21.30;13.03;;;10.50;99.90;;;;;;5074662;28;20314;-78
2022/04/26 04:09:41;;;;;;;24.20;14.00;;;10.50;99.90;;;;;;5074511;28;20385;-78
2022/04/26 04:12:08;;;;;;;29.30;15.97;;;10.50;99.90;;;;;;5074529;28;20177;-78
2022/04/26 04:14:34;;;;;;;26.90;16.07;;;10.40;99.90;;;;;;5074334;28;20180;-78
2022/04/26 04:17:00;;;;;;;25.23;15.63;;;10.30;99.90;;;;;;5074571;28;20472;-79
2022/04/26 04:19:27;;;;;;;27.97;16.87;;;10.30;99.90;;;;;;5074122;28;20258;-78
2022/04/26 04:21:53;;;;;;;27.47;17.47;;;10.30;99.90;;;;;;5073496;28;20658;-78
2022/04/26 04:24:20;;;;;;;31.37;17.77;;;10.30;99.90;;;;;;5073830;28;20434;-78
2022/04/26 04:26:46;;;;;;;28.90;17.70;;;10.30;99.90;;;;;;5073526;28;20456;-78
2022/04/26 04:29:12;;;;;;;29.37;16.50;;;10.30;99.90;;;;;;5073811;28;20920;-78
2022/04/26 04:31:39;;;;;;;30.93;18.40;;;10.30;99.90;;;;;;5073860;28;20471;-78
2022/04/26 04:34:05;;;;;;;29.63;17.83;;;10.30;99.90;;;;;;5073952;28;20798;-79
2022/04/26 04:36:30;;;;;;;34.37;19.70;;;10.20;99.90;;;;;;5073686;28;20450;-79
2022/04/26 04:38:57;;;;;;;33.87;18.70;;;10.30;99.90;;;;;;5074120;28;20242;-78
2022/04/26 04:41:23;;;;;;;31.43;18.57;;;10.20;99.90;;;;;;5073506;28;20211;-78
2022/04/26 04:43:49;;;;;;;32.43;18.40;;;10.20;99.90;;;;;;5073500;28;20792;-78
2022/04/26 04:46:15;;;;;;;27.00;16.87;;;10.30;99.90;;;;;;5073165;28;20458;-78
2022/04/26 04:48:41;;;;;;;33.77;20.40;;;10.30;99.90;;;;;;5073684;28;20797;-78
2022/04/26 04:51:07;;;;;;;34.07;21.53;;;10.20;99.90;;;;;;5073024;28;20206;-78
2022/04/26 04:53:34;;;;;;;35.20;20.63;;;10.00;99.90;;;;;;5073927;28;20198;-78
2022/04/26 04:56:00;;;;;;;29.10;19.47;;;10.00;99.90;;;;;;5073303;28;20441;-78
2022/04/26 04:58:26;;;;;;;37.60;22.00;;;10.00;99.90;;;;;;5073382;28;20479;-78
2022/04/26 05:00:52;;;;;;;30.87;18.80;;;10.00;99.90;;;;;;5072680;28;20473;-79
2022/04/26 05:03:18;;;;;;;31.23;19.27;;;10.10;99.90;;;;;;5073425;28;20928;-79
2022/04/26 05:05:44;;;;;;;37.00;21.60;;;10.20;99.90;;;;;;5073196;28;20486;-78
2022/04/26 05:08:10;;;;;;;31.60;19.90;;;10.20;99.90;;;;;;5073124;28;20437;-78
2022/04/26 05:10:37;;;;;;;35.40;20.27;;;10.20;99.90;;;;;;5072577;28;20215;-78
2022/04/26 05:13:04;;;;;;;35.43;20.00;;;10.20;99.90;;;;;;5073676;28;20505;-79
2022/04/26 05:15:30;;;;;;;32.57;20.20;;;10.10;99.90;;;;;;5073127;28;20423;-79
2022/04/26 05:17:56;;;;;;;34.67;19.57;;;10.10;99.90;;;;;;5072757;28;20420;-78
2022/04/26 05:20:22;;;;;;;35.67;20.07;;;10.00;99.90;;;;;;5073084;28;20425;-78
2022/04/26 05:25:37;;;;;;;30.93;19.10;;;10.00;99.90;;;;;;5074646;28;20848;-79
2022/04/26 05:28:03;;;;;;;36.70;20.70;;;9.90;99.90;;;;;;5072853;28;20425;-78
2022/04/26 05:30:29;;;;;;;29.50;18.53;;;10.00;99.90;;;;;;5072814;28;20464;-78
2022/04/26 05:32:55;;;;;;;29.63;17.93;;;9.90;99.90;;;;;;5072476;28;20975;-78
2022/04/26 05:35:22;;;;;;;25.30;16.90;;;9.80;99.90;;;;;;5072287;28;20469;-78
2022/04/26 05:37:49;;;;;;;31.17;18.50;;;9.70;99.90;;;;;;5072634;28;20950;-78
2022/04/26 05:40:15;;;;;;;28.07;18.13;;;9.80;99.90;;;;;;5075248;28;20429;-79
2022/04/26 05:42:41;;;;;;;30.23;16.83;;;9.80;99.90;;;;;;5077871;28;20983;-79
2022/04/26 05:45:07;;;;;;;35.60;19.37;;;9.80;99.90;;;;;;5077212;28;20428;-79
2022/04/26 05:47:33;;;;;;;26.50;17.00;;;9.80;99.90;;;;;;5076570;28;20459;-78
2022/04/26 05:49:59;;;;;;;28.13;18.70;;;9.70;99.90;;;;;;5074034;28;20464;-80
2022/04/26 05:52:26;;;;;;;32.20;19.40;;;9.70;99.90;;;;;;5073739;28;20414;-79
2022/04/26 05:54:52;;;;;;;29.20;18.70;;;9.80;99.90;;;;;;5074780;28;20637;-80
2022/04/26 05:57:18;;;;;;;30.27;19.20;;;9.80;99.90;;;;;;5074447;28;20433;-79
2022/04/26 05:59:44;;;;;;;34.33;21.10;;;9.70;99.90;;;;;;5073514;28;20185;-80
2022/04/26 06:02:10;;;;;;;36.13;19.97;;;9.50;99.90;;;;;;5073207;28;20545;-79
2022/04/26 06:04:38;;;;;;;33.50;20.30;;;9.60;99.90;;;;;;5073144;28;20472;-78
2022/04/26 06:07:04;;;;;;;37.10;19.90;;;9.50;99.90;;;;;;5073072;28;20514;-79
2022/04/26 06:09:29;;;;;;;31.77;17.97;;;9.60;99.90;;;;;;5072848;28;20425;-80
2022/04/26 06:11:56;;;;;;;32.70;17.80;;;9.60;99.90;;;;;;5073286;28;20473;-78
2022/04/26 06:14:22;;;;;;;27.77;16.27;;;9.60;99.90;;;;;;5076794;28;20578;-78
2022/04/26 06:16:48;;;;;;;21.00;13.30;;;9.50;99.90;;;;;;5076732;28;20444;-77
2022/04/26 06:19:13;;;;;;;24.03;13.40;;;9.50;99.90;;;;;;5076997;28;20269;-78
2022/04/26 06:21:39;;;;;;;25.40;14.53;;;9.50;99.90;;;;;;5076723;28;20216;-78
2022/04/26 06:24:05;;;;;;;22.47;13.33;;;9.50;99.90;;;;;;5076757;28;20183;-77
2022/04/26 06:26:31;;;;;;;23.03;13.83;;;9.60;99.90;;;;;;5077168;28;20616;-78
2022/04/26 06:28:57;;;;;;;23.13;15.47;;;9.60;99.90;;;;;;5076521;28;20473;-77
2022/04/26 06:31:23;;;;;;;27.13;15.70;;;9.50;99.90;;;;;;5076293;28;20218;-77
2022/04/26 06:33:48;;;;;;;25.73;15.90;;;9.50;99.90;;;;;;5076164;28;20257;-78
2022/04/26 06:36:14;;;;;;;21.53;13.20;;;9.60;99.90;;;;;;5076456;28;20869;-77
2022/04/26 06:38:40;;;;;;;26.90;15.47;;;9.50;99.90;;;;;;5075568;28;20183;-77
2022/04/26 06:41:06;;;;;;;20.50;12.87;;;9.40;99.90;;;;;;5074200;28;20183;-77
2022/04/26 06:43:33;;;;;;;26.57;15.70;;;9.40;99.90;;;;;;5076098;28;20787;-78
2022/04/26 06:46:00;;;;;;;22.33;13.80;;;9.40;99.90;;;;;;5076905;28;20955;-81
2022/04/26 06:48:26;;;;;;;22.87;13.00;;;9.40;99.90;;;;;;5076469;28;20429;-77
2022/04/26 06:50:55;;;;;;;20.40;14.03;;;9.50;99.90;;;;;;5078127;28;20473;-78
2022/04/26 06:53:21;;;;;;;22.43;15.20;;;9.50;99.90;;;;;;5077306;28;20470;-78
2022/04/26 06:55:47;;;;;;;26.50;15.77;;;9.60;99.90;;;;;;5077861;28;20472;-77
2022/04/26 06:58:13;;;;;;;28.10;15.23;;;9.60;99.90;;;;;;5078103;28;20943;-78
2022/04/26 07:00:39;;;;;;;28.60;15.97;;;9.50;99.90;;;;;;5077602;28;20574;-78
2022/04/26 07:03:05;;;;;;;23.70;15.07;;;9.50;99.90;;;;;;5077978;28;20620;-78
2022/04/26 07:05:31;;;;;;;25.77;14.60;;;9.50;99.90;;;;;;5077487;28;20464;-79
2022/04/26 07:07:57;;;;;;;24.57;15.40;;;9.70;99.90;;;;;;5078102;28;20472;-77
2022/04/26 07:10:23;;;;;;;22.63;13.17;;;9.70;99.90;;;;;;5077693;28;20468;-78
2022/04/26 07:12:49;;;;;;;26.43;14.50;;;9.70;99.90;;;;;;5078240;28;20281;-79
2022/04/26 07:15:14;;;;;;;25.50;13.80;;;9.70;99.90;;;;;;5077571;28;20805;-77
2022/04/26 07:17:42;;;;;;;29.13;14.47;;;9.80;99.90;;;;;;5077784;28;20612;-79
2022/04/26 07:20:09;;;;;;;23.83;15.20;;;9.80;99.90;;;;;;5077567;28;20191;-78
2022/04/26 07:22:36;;;;;;;32.47;16.07;;;9.90;99.90;;;;;;5076554;28;20419;-78
2022/04/26 07:25:03;;;;;;;26.03;14.93;;;9.90;99.90;;;;;;5077182;28;20429;-77
2022/04/26 07:27:29;;;;;;;33.40;18.10;;;10.00;99.90;;;;;;5077425;28;20520;-78
2022/04/26 07:29:55;;;;;;;31.97;18.03;;;10.00;99.90;;;;;;5077521;28;20948;-79
2022/04/26 07:34:20;;;;;;;29.83;17.27;;;10.30;99.90;;;;;;5076936;28;20191;-78
2022/04/26 07:35:09;;;;;;;33.23;18.47;;;10.50;99.90;;;;;;5077476;28;20264;-79
2022/04/26 07:37:35;;;;;;;33.70;18.60;;;10.50;99.90;;;;;;5076307;28;20445;-77
2022/04/26 07:40:04;;;;;;;26.40;15.13;;;10.50;99.90;;;;;;5061164;28;20520;-80
2022/04/26 07:42:30;;;;;;;28.50;16.37;;;10.50;99.90;;;;;;5065861;28;20925;-80
2022/04/26 07:44:56;;;;;;;29.93;15.37;;;10.50;99.90;;;;;;5066850;28;20526;-80
2022/04/26 07:47:27;;;;;;;29.23;16.77;;;10.50;99.90;;;;;;5075730;28;20199;-80
2022/04/26 07:49:54;;;;;;;29.53;18.20;;;10.40;99.90;;;;;;5066312;28;20647;-78
2022/04/26 07:52:21;;;;;;;25.17;16.17;;;10.50;99.90;;;;;;5075341;28;20516;-78
2022/04/26 07:54:47;;;;;;;26.50;17.27;;;10.40;99.90;;;;;;5075185;28;20419;-79
2022/04/26 07:57:13;;;;;;;29.57;18.20;;;10.30;99.90;;;;;;5075107;28;20445;-78
2022/04/26 07:59:39;;;;;;;34.57;18.37;;;10.30;99.90;;;;;;5075208;28;20451;-78
2022/04/26 08:02:10;;;;;;;31.13;18.47;;;10.30;99.90;;;;;;5075200;28;20433;-79
2022/04/26 08:04:36;;;;;;;25.93;16.03;;;10.20;99.90;;;;;;5074850;28;20427;-78
2022/04/26 08:07:02;;;;;;;28.17;18.97;;;10.30;99.90;;;;;;5091729;28;20911;-78
2022/04/26 08:09:28;;;;;;;30.27;20.30;;;10.60;99.90;;;;;;5075977;28;20433;-78
2022/04/26 08:11:54;;;;;;;29.80;20.20;;;10.90;99.90;;;;;;5075333;28;20465;-77
2022/04/26 08:14:20;;;;;;;34.37;19.97;;;11.10;99.90;;;;;;5076465;28;20432;-77
2022/04/26 08:16:46;;;;;;;35.83;21.13;;;11.40;99.90;;;;;;5074460;28;20201;-79
2022/04/26 08:19:15;;;;;;;35.80;21.87;;;11.40;99.90;;;;;;5067445;28;20456;-79
2022/04/26 08:21:41;;;;;;;38.27;23.03;;;11.30;99.90;;;;;;5061809;28;20759;-79
2022/04/26 08:29:35;;;;;;;35.83;22.97;;;11.00;99.90;;;;;;5055331;28;20449;-78
2022/04/26 08:32:01;;;;;;;41.50;22.03;;;11.10;99.90;;;;;;5053267;28;20473;-77
2022/04/26 08:34:28;;;;;;;36.90;20.77;;;11.60;99.90;;;;;;5052940;28;20196;-77
2022/04/26 08:36:54;;;;;;;39.93;22.77;;;11.70;99.90;;;;;;5052012;28;20632;-77
2022/04/26 08:39:21;;;;;;;37.67;22.80;;;11.80;99.90;;;;;;5053061;28;20545;-77
2022/04/26 08:41:47;;;;;;;34.80;21.93;;;11.90;99.90;;;;;;5052667;28;20434;-77
2022/04/26 08:44:16;;;;;;;36.30;21.47;;;11.70;99.90;;;;;;5052662;28;20422;-77
2022/04/26 08:52:10;;;;;;;34.23;21.97;;;11.90;99.90;;;;;;5053672;28;20515;-78
2022/04/26 08:54:36;;;;;;;42.53;22.53;;;11.60;99.90;;;;;;5052528;28;20456;-78
2022/04/26 08:57:02;;;;;;;33.63;21.97;;;11.60;99.90;;;;;;5052681;28;20450;-78
2022/04/26 08:59:30;;;;;;;38.07;22.00;;;11.70;99.90;;;;;;5052616;28;20218;-78
2022/04/26 09:02:18;;;;;;;39.57;25.60;;;11.70;99.90;;;;;;5052360;28;20426;-78
2022/04/26 09:04:44;;;;;;;36.20;22.03;;;11.70;99.90;;;;;;5052881;28;20421;-77
2022/04/26 09:07:14;;;;;;;38.27;24.23;;;11.60;99.90;;;;;;5052758;28;20496;-77
2022/04/26 09:09:41;;;;;;;34.47;21.47;;;11.50;99.90;;;;;;5052701;28;20792;-78
2022/04/26 09:12:11;;;;;;;35.03;23.20;;;11.50;99.90;;;;;;5052377;28;20984;-78
2022/04/26 09:14:47;;;;;;;37.27;22.80;;;11.50;99.90;;;;;;5052368;28;20429;-77
2022/04/26 09:17:16;;;;;;;37.40;22.83;;;11.50;99.90;;;;;;5052786;28;20541;-77
2022/04/26 09:19:52;;;;;;;35.90;21.57;;;11.50;99.90;;;;;;5052762;28;20436;-77
2022/04/26 09:22:26;;;;;;;35.80;21.67;;;11.50;99.90;;;;;;5052728;28;20457;-77
2022/04/26 09:25:04;;;;;;;34.83;21.73;;;11.40;99.90;;;;;;5052426;28;20425;-77
2022/04/26 09:27:30;;;;;;;39.70;23.80;;;11.30;99.90;;;;;;5052789;28;20952;-77
2022/04/26 09:29:56;;;;;;;32.87;20.37;;;11.50;99.90;;;;;;5052657;28;20418;-78
2022/04/26 09:32:25;;;;;;;36.40;21.90;;;11.40;99.90;;;;;;5052566;28;20794;-77
2022/04/26 09:37:22;;;;;;;36.00;21.17;;;11.60;99.90;;;;;;5034984;28;20480;-77
2022/04/26 09:40:02;;;;;;;34.50;20.23;;;12.20;99.90;;;;;;5020017;28;20476;-77
2022/04/26 09:42:33;;;;;;;28.70;18.50;;;12.40;99.90;;;;;;5019870;28;20187;-77
2022/04/26 09:45:09;;;;;;;28.53;19.60;;;12.40;99.90;;;;;;5019716;28;20422;-77
2022/04/26 09:47:40;;;;;;;32.53;18.47;;;12.40;99.90;;;;;;5017816;28;20478;-77
2022/04/26 09:50:14;;;;;;;28.70;20.50;;;12.40;99.90;;;;;;5018088;28;20427;-77
2022/04/26 09:52:41;;;;;;;31.20;19.40;;;12.50;99.90;;;;;;5018531;28;20462;-77
2022/04/26 09:55:09;;;;;;;35.70;20.23;;;12.70;99.90;;;;;;5018281;28;20415;-77
2022/04/26 09:57:37;;;;;;;29.63;19.00;;;12.80;99.90;;;;;;5018487;28;20467;-77
2022/04/26 10:00:12;;;;;;;31.53;18.50;;;12.90;99.90;;;;;;5017819;28;20431;-77
2022/04/26 10:02:45;;;;;;;32.50;19.10;;;12.80;99.90;;;;;;5018296;28;20458;-78
2022/04/26 10:05:13;;;;;;;29.67;18.60;;;12.70;99.90;;;;;;5019027;28;20428;-77
2022/04/26 10:07:48;;;;;;;30.30;20.20;;;12.70;99.90;;;;;;5019035;28;20996;-77
2022/04/26 10:10:14;;;;;;;32.33;19.30;;;12.80;99.90;;;;;;5018733;28;20530;-77
2022/04/26 10:13:31;;;;;;;28.80;18.20;;;13.00;99.90;;;;;;5019174;28;20419;-77
2022/04/26 10:15:27;;;;;;;29.93;18.60;;;13.10;99.90;;;;;;5037114;28;20423;-77
2022/04/26 10:17:53;;;;;;;29.90;19.73;;;13.10;99.90;;;;;;5020353;28;20453;-77
2022/04/26 10:20:41;;;;;;;31.97;22.13;;;13.20;99.90;;;;;;5019992;28;20188;-77
2022/04/26 10:23:07;;;;;;;35.33;21.63;;;13.20;99.90;;;;;;5019957;28;20419;-77
2022/04/26 10:25:33;;;;;;;32.87;20.87;;;13.10;99.90;;;;;;5021817;28;20506;-77
2022/04/26 10:28:26;;;;;;;29.90;20.07;;;13.20;99.90;;;;;;5022189;28;20248;-78
2022/04/26 10:30:57;;;;;;;29.30;20.10;;;13.40;99.90;;;;;;5021329;28;20486;-77
2022/04/26 10:33:35;;;;;;;26.77;19.70;;;13.40;99.90;;;;;;5021177;28;20479;-78
2022/04/26 10:36:20;;;;;;;30.03;20.37;;;13.40;99.90;;;;;;5020881;28;20509;-77
2022/04/26 10:39:12;;;;;;;26.70;18.00;;;13.40;99.90;;;;;;5019524;28;20506;-78
2022/04/26 10:41:41;;;;;;;33.90;21.30;;;13.40;99.90;;;;;;5018654;28;20427;-77
2022/04/26 10:44:13;;;;;;;32.83;20.43;;;13.20;99.90;;;;;;5019818;28;20430;-77
2022/04/26 10:46:41;;;;;;;26.40;18.90;;;13.50;99.90;;;;;;5018786;28;20472;-78
2022/04/26 10:49:24;;;;;;;34.40;21.20;;;13.40;99.90;;;;;;5020155;28;20423;-78
2022/04/26 10:51:57;;;;;;;27.63;19.07;;;13.30;99.90;;;;;;5020007;28;20554;-78
2022/04/26 10:55:07;;;;;;;28.93;20.20;;;13.30;99.90;;;;;;5019996;28;20454;-77
2022/04/26 10:57:34;;;;;;;29.43;19.70;;;13.30;99.90;;;;;;5020413;28;20787;-77
2022/04/26 11:00:15;;;;;;;27.83;18.43;;;13.50;99.90;;;;;;5022586;28;20419;-78
2022/04/26 11:02:47;;;;;;;27.20;18.70;;;13.70;99.90;;;;;;5023762;28;20410;-78
2022/04/26 11:05:14;;;;;;;25.00;18.10;;;13.80;99.90;;;;;;5024101;28;20823;-78
2022/04/26 11:07:43;;;;;;;23.73;17.50;;;13.90;99.90;;;;;;5024680;28;20431;-78
2022/04/26 11:10:11;;;;;;;23.87;15.77;;;14.20;99.90;;;;;;5024415;28;20491;-78
2022/04/26 11:12:38;;;;;;;22.27;15.23;;;14.50;99.90;;;;;;5024569;28;20461;-80
2022/04/26 11:15:12;;;;;;;19.53;15.53;;;14.30;99.90;;;;;;5019969;28;20429;-80
2022/04/26 11:17:39;;;;;;;19.33;15.03;;;14.50;99.90;;;;;;5018191;28;20474;-80
2022/04/26 11:20:10;;;;;;;19.80;16.27;;;14.60;99.90;;;;;;5019488;28;20423;-79
2022/04/26 11:22:47;;;;;;;19.63;16.03;;;14.80;99.90;;;;;;5018654;28;21001;-79
2022/04/26 11:28:09;;;;;;;22.53;16.23;;;15.70;99.90;;;;;;5043155;28;20474;-78
2022/04/26 11:30:48;;;;;;;21.70;15.83;;;15.90;99.90;;;;;;5018289;28;20959;-78
2022/04/26 11:33:23;;;;;;;21.40;16.43;;;16.10;99.90;;;;;;5020705;28;20426;-79
2022/04/26 11:35:58;;;;;;;21.07;17.53;;;16.20;99.90;;;;;;5020108;28;20457;-80
2022/04/26 11:38:25;;;;;;;21.97;17.77;;;16.10;99.90;;;;;;5021859;28;20521;-80
2022/04/26 11:41:01;;;;;;;22.40;18.70;;;16.40;99.90;;;;;;5021014;28;20426;-80
2022/04/26 11:43:36;;;;;;;26.60;17.63;;;18.10;99.90;;;;;;5022732;28;20434;-79
2022/04/26 11:46:03;;;;;;;21.07;16.60;;;19.40;99.90;;;;;;5017651;28;20442;-78
2022/04/26 11:48:33;;;;;;;21.20;17.50;;;19.50;99.90;;;;;;5016682;28;20426;-78
2022/04/26 11:51:00;;;;;;;21.87;18.13;;;20.30;99.90;;;;;;5018422;28;20539;-78
2022/04/26 11:53:28;;;;;;;20.20;18.00;;;20.20;99.90;;;;;;5020604;28;20411;-78
2022/04/26 11:56:00;;;;;;;23.10;20.17;;;20.10;99.90;;;;;;5019784;28;20561;-78
2022/04/26 11:58:33;;;;;;;22.87;19.13;;;19.50;99.90;;;;;;5020472;28;20415;-78
2022/04/26 12:01:17;;;;;;;24.53;17.43;;;19.20;99.90;;;;;;5025069;28;20423;-78
2022/04/26 12:03:51;;;;;;;22.30;18.07;;;18.90;99.90;;;;;;5027821;28;20418;-79
2022/04/26 12:06:29;;;;;;;19.63;17.30;;;18.70;99.90;;;;;;5021896;28;21274;-77
2022/04/26 12:08:57;;;;;;;24.97;20.10;;;18.00;99.90;;;;;;5038324;28;20434;-78
2022/04/26 12:11:26;;;;;;;26.10;20.43;;;17.70;99.90;;;;;;5017734;28;20459;-77
2022/04/26 12:14:11;;;;;;;30.03;21.87;;;17.70;99.90;;;;;;5021331;28;20419;-77
2022/04/26 12:16:48;;;;;;;25.77;19.90;;;17.50;99.90;;;;;;5023089;28;20443;-78
2022/04/26 12:19:15;;;;;;;31.27;23.70;;;17.30;99.90;;;;;;5023953;28;20415;-78
2022/04/26 12:21:52;;;;;;;26.37;20.90;;;17.40;99.90;;;;;;5023273;28;20495;-78
2022/04/26 12:24:26;;;;;;;28.50;22.17;;;17.10;99.90;;;;;;5023114;28;20479;-78
2022/04/26 12:26:55;;;;;;;25.47;19.17;;;17.70;99.90;;;;;;5022550;28;20487;-79
2022/04/26 12:29:23;;;;;;;25.10;20.67;;;20.00;99.90;;;;;;5023647;28;20427;-79
2022/04/26 12:31:49;;;;;;;25.23;20.10;;;20.10;99.90;;;;;;5022836;28;20470;-78
2022/04/26 12:34:29;;;;;;;26.10;19.73;;;20.10;99.90;;;;;;5007053;28;21013;-78
2022/04/26 12:37:11;;;;;;;18.73;14.80;;;19.80;99.90;;;;;;5021720;28;20469;-79
2022/04/26 12:39:52;;;;;;;23.17;18.50;;;19.90;99.90;;;;;;5022257;28;20481;-78
2022/04/26 12:42:39;;;;;;;20.40;17.80;;;19.80;99.90;;;;;;5027607;28;20431;-79
2022/04/26 12:45:21;;;;;;;21.43;18.40;;;20.60;99.90;;;;;;5027785;28;20423;-79
2022/04/26 12:50:52;;;;;;;24.17;17.80;;;21.20;99.90;;;;;;5044511;28;20497;-79
2022/04/26 12:53:29;;;;;;;23.47;17.73;;;21.00;99.90;;;;;;5025797;28;20477;-79
2022/04/26 12:56:06;;;;;;;20.83;18.53;;;20.40;99.90;;;;;;5026073;28;20453;-79
2022/04/26 12:58:37;;;;;;;20.37;16.40;;;21.10;99.90;;;;;;5025944;28;20466;-79
2022/04/26 13:01:04;;;;;;;17.90;16.00;;;22.00;99.90;;;;;;5024827;28;20465;-79
2022/04/26 13:03:30;;;;;;;16.50;14.90;;;22.60;99.90;;;;;;5025099;28;20477;-79
2022/04/26 13:06:17;;;;;;;17.67;15.37;;;23.50;99.90;;;;;;5025258;28;20909;-79
2022/04/26 13:08:48;;;;;;;17.00;15.17;;;22.80;99.90;;;;;;5024041;28;20898;-79
2022/04/26 13:11:18;;;;;;;16.10;14.40;;;22.30;99.90;;;;;;5022975;28;20486;-79
2022/04/26 13:13:49;;;;;;;17.57;15.27;;;21.70;99.90;;;;;;5022913;28;20419;-79
2022/04/26 13:16:19;;;;;;;17.57;14.97;;;20.80;99.90;;;;;;5022388;28;20507;-79
2022/04/26 13:18:46;;;;;;;17.03;13.20;;;20.40;99.90;;;;;;5023443;28;20419;-79
2022/04/26 13:21:13;;;;;;;17.90;14.53;;;20.30;99.90;;;;;;5021819;28;20506;-79
2022/04/26 13:23:41;;;;;;;17.70;15.07;;;19.90;99.90;;;;;;5022860;28;20775;-79
2022/04/26 13:26:07;;;;;;;17.63;14.53;;;20.00;99.90;;;;;;5022759;28;20895;-78
2022/04/26 13:28:33;;;;;;;17.50;14.37;;;21.40;99.90;;;;;;5022339;28;20459;-80
2022/04/26 13:30:59;;;;;;;16.30;14.40;;;22.70;99.90;;;;;;5021980;28;20478;-79
2022/04/26 13:33:30;;;;;;;16.60;14.50;;;23.30;99.90;;;;;;5022998;28;20419;-79
2022/04/26 13:35:56;;;;;;;14.90;13.30;;;23.30;98.50;;;;;;5020960;28;20594;-79
2022/04/26 13:38:22;;;;;;;13.93;12.43;;;22.60;95.60;;;;;;5021685;28;20423;-80
2022/04/26 13:40:48;;;;;;;14.10;12.60;;;22.30;97.90;;;;;;5020295;28;20791;-79
2022/04/26 13:43:14;;;;;;;14.90;12.63;;;23.10;98.40;;;;;;5020750;28;20180;-80
2022/04/26 13:45:40;;;;;;;13.60;11.70;;;24.50;93.80;;;;;;5019324;28;20427;-79
2022/04/26 13:48:13;;;;;;;13.73;10.57;;;24.20;92.40;;;;;;5020669;28;20464;-80
2022/04/26 13:50:40;;;;;;;11.67;10.57;;;23.50;93.10;;;;;;5020507;28;20283;-79
2022/04/26 13:53:06;;;;;;;13.27;11.40;;;22.30;96.40;;;;;;5019897;28;20420;-79
2022/04/26 13:55:32;;;;;;;11.73;10.63;;;21.20;98.90;;;;;;5020093;28;20416;-79
2022/04/26 13:57:58;;;;;;;13.33;11.97;;;20.60;99.90;;;;;;5020408;28;20754;-78
2022/04/26 14:00:24;;;;;;;14.90;12.90;;;19.60;99.90;;;;;;5018888;28;20427;-80
2022/04/26 14:02:50;;;;;;;14.43;12.77;;;19.40;99.90;;;;;;5020572;28;20183;-79
2022/04/26 14:05:16;;;;;;;14.93;13.20;;;19.10;99.90;;;;;;5019701;28;20177;-79
2022/04/26 14:07:43;;;;;;;14.00;10.50;;;19.20;99.90;;;;;;5020360;28;20207;-79
2022/04/26 14:10:09;;;;;;;11.23;10.10;;;19.30;99.90;;;;;;5020151;28;20433;-79
2022/04/26 14:12:35;;;;;;;12.53;11.23;;;19.70;99.90;;;;;;5017838;28;20923;-79
2022/04/26 14:23:14;;;;;;;13.23;10.57;;;18.10;99.90;;;;;;5036643;28;20436;-79
2022/04/26 14:25:40;;;;;;;12.67;10.37;;;17.50;99.90;;;;;;5017398;28;20521;-79
2022/04/26 14:28:06;;;;;;;15.40;10.90;;;17.40;99.90;;;;;;5019153;28;20593;-80
2022/04/26 14:30:31;;;;;;;12.87;10.77;;;17.10;99.90;;;;;;5017980;28;21005;-79
2022/04/26 14:32:57;;;;;;;12.67;10.57;;;17.10;99.90;;;;;;5014506;28;20407;-78
2022/04/26 14:35:23;;;;;;;12.00;10.20;;;17.20;99.90;;;;;;5017083;28;20192;-78
2022/04/26 14:37:51;;;;;;;13.33;9.73;;;17.10;99.90;;;;;;5017559;28;20234;-78
2022/04/26 14:40:17;;;;;;;12.23;10.73;;;17.30;99.90;;;;;;5017738;28;20422;-78
2022/04/26 14:42:46;;;;;;;11.53;10.33;;;17.10;99.90;;;;;;5018093;28;20960;-78
2022/04/26 14:45:13;;;;;;;10.60;9.47;;;17.00;99.90;;;;;;5018520;28;20426;-78
2022/04/26 14:47:40;;;;;;;11.13;9.10;;;17.70;99.90;;;;;;5018476;28;20431;-79
2022/04/26 14:50:08;;;;;;;10.07;9.07;;;19.40;99.90;;;;;;5017408;28;20451;-79
2022/04/26 14:52:34;;;;;;;9.00;8.10;;;21.30;99.90;;;;;;5018568;28;20419;-78
2022/04/26 14:55:01;;;;;;;10.70;8.80;;;21.90;99.90;;;;;;5018207;28;20451;-78
2022/04/26 14:57:27;;;;;;;10.63;8.83;;;23.60;99.90;;;;;;5018105;28;20450;-78
2022/04/26 14:59:53;;;;;;;10.90;8.70;;;24.30;96.30;;;;;;5018487;28;20415;-78
2022/04/26 15:02:19;;;;;;;9.53;8.60;;;25.20;91.50;;;;;;5018015;28;20435;-79
2022/04/26 15:04:47;;;;;;;9.57;8.50;;;25.30;87.20;;;;;;5018176;28;20275;-79
2022/04/26 15:07:13;;;;;;;10.00;9.00;;;25.60;81.00;;;;;;5018238;28;20810;-79
2022/04/26 15:09:45;;;;;;;8.80;7.90;;;24.80;75.70;;;;;;5018994;28;20430;-79
2022/04/26 15:17:48;;;;;;;10.43;8.27;;;20.50;95.30;;;;;;5036524;28;20469;-78
2022/04/26 15:20:16;;;;;;;8.60;6.50;;;19.90;99.90;;;;;;5017868;28;20419;-78
2022/04/26 15:22:42;;;;;;;6.63;5.40;;;19.30;99.90;;;;;;5018522;28;20850;-79
2022/04/26 15:25:09;;;;;;;6.50;5.90;;;18.70;99.90;;;;;;5018255;28;20419;-78
2022/04/26 15:27:39;;;;;;;6.80;6.20;;;17.60;99.90;;;;;;5019464;28;20232;-78
2022/04/26 15:30:09;;;;;;;5.60;5.03;;;;;;;;;;5021275;28;20450;-77
2022/04/26 15:32:36;;;;;;;6.93;6.23;;;15.70;99.90;;;;;;5021592;28;20836;-78
2022/04/26 15:35:02;;;;;;;7.40;6.33;;;15.00;99.90;;;;;;5021363;28;20929;-77
2022/04/26 15:37:29;;;;;;;8.70;7.37;;;14.40;99.90;;;;;;5019096;28;20446;-77
2022/04/26 15:39:55;;;;;;;9.50;7.17;;;13.70;99.90;;;;;;5019581;28;20948;-77
2022/04/26 15:42:25;;;;;;;8.40;7.50;;;13.40;99.90;;;;;;5018025;28;20419;-77
2022/04/26 15:44:51;;;;;;;8.67;7.47;;;13.00;99.90;;;;;;5020167;28;20435;-77
2022/04/26 15:47:17;;;;;;;9.97;7.93;;;12.80;99.90;;;;;;5021349;28;20449;-77
2022/04/26 15:49:44;;;;;;;9.87;8.23;;;12.70;99.90;;;;;;5021892;28;20487;-77
2022/04/26 15:52:10;;;;;;;11.00;8.77;;;12.60;99.90;;;;;;5021613;28;21059;-78
2022/04/26 15:54:36;;;;;;;10.00;8.27;;;12.50;99.90;;;;;;5022760;28;20419;-77
2022/04/26 15:57:03;;;;;;;13.00;9.93;;;12.40;99.90;;;;;;5021647;28;20205;-78
2022/04/26 15:59:29;;;;;;;11.23;8.93;;;12.30;99.90;;;;;;5021361;28;20450;-77
2022/04/26 16:01:55;;;;;;;11.13;9.80;;;12.30;99.90;;;;;;5021434;28;20929;-77
2022/04/26 16:04:21;;;;;;;12.97;10.70;;;12.30;99.90;;;;;;5022218;28;20419;-78
2022/04/26 16:06:47;;;;;;;10.97;9.63;;;12.30;99.90;;;;;;5021804;28;20439;-77
2022/04/26 16:20:29;;;;;;;12.00;9.60;;;12.30;99.90;;;;;;5039042;28;20435;-77
2022/04/26 16:23:05;;;;;;;11.83;8.87;;;12.20;99.90;;;;;;5020104;28;20442;-77
2022/04/26 16:25:32;;;;;;;11.10;9.00;;;12.20;99.90;;;;;;5018910;28;20792;-77
2022/04/26 16:28:01;;;;;;;12.77;9.47;;;12.10;99.90;;;;;;5017828;28;20933;-77
2022/04/26 16:30:31;;;;;;;13.93;10.10;;;12.10;99.90;;;;;;5017597;28;20601;-77
2022/04/26 16:32:58;;;;;;;12.70;10.43;;;12.00;99.90;;;;;;5019753;28;20427;-77
2022/04/26 16:35:24;;;;;;;14.53;11.60;;;12.00;99.90;;;;;;5021109;28;20454;-77
2022/04/26 16:37:52;;;;;;;13.20;10.33;;;11.90;99.90;;;;;;5022638;28;20434;-78
2022/04/26 16:40:18;;;;;;;13.80;10.60;;;12.00;99.90;;;;;;5021882;28;20438;-77
2022/04/26 16:42:44;;;;;;;21.03;11.07;;;12.00;99.90;;;;;;5022794;28;20483;-77
2022/04/26 16:45:10;;;;;;;16.43;12.83;;;12.20;99.90;;;;;;5022639;28;20425;-78
2022/04/26 16:47:36;;;;;;;12.43;10.70;;;12.20;99.90;;;;;;5023593;28;20202;-77
2022/04/26 16:50:04;;;;;;;15.17;11.80;;;12.30;99.90;;;;;;5023230;28;20427;-77
2022/04/26 16:52:31;;;;;;;17.23;12.80;;;12.30;99.90;;;;;;5023068;28;21063;-78
2022/04/26 16:54:57;;;;;;;13.57;11.13;;;12.30;99.90;;;;;;5036400;28;20427;-77
2022/04/26 16:57:28;;;;;;;12.93;10.90;;;12.30;99.90;;;;;;5021971;28;20437;-78
2022/04/26 16:59:56;;;;;;;14.20;11.30;;;12.30;99.90;;;;;;5022921;28;20182;-77
2022/04/26 17:02:25;;;;;;;15.10;12.50;;;12.20;99.90;;;;;;5023393;28;20437;-78